| time (UTC) | temp C | wind direction | speed KPH | gust KPH | rain 1hr cm | rain 24hr cm | rain mn cm | humidity % | barometer mb |
| 20260504001601 | 16 | 146 | 3.2 | 8.0 | 0.00 | 0.00 | 0.00 | 70 | 1014.2 |
| 20260504000053 | 16 | 146 | 6.4 | 16.1 | 0.00 | 0.00 | 0.00 | 70 | 1014.3 |
| 20260503234541 | 16 | 147 | 11.3 | 17.7 | 0.00 | 0.00 | 0.00 | 72 | 1014.3 |
| 20260503233033 | 16 | 171 | 8.0 | 17.7 | 0.00 | 0.00 | 0.00 | 72 | 1014.4 |
| 20260503231515 | 16 | 153 | 8.0 | 22.5 | 0.00 | 0.00 | 0.00 | 71 | 1014.5 |
| 20260503230017 | 16 | 190 | 4.8 | 16.1 | 0.00 | 0.00 | 0.00 | 71 | 1014.5 |
| 20260503224614 | 16 | 196 | 8.0 | 17.7 | 0.00 | 0.00 | 0.00 | 72 | 1014.5 |
| 20260503223059 | 16 | 188 | 8.0 | 16.1 | 0.00 | 0.00 | 0.00 | 73 | 1014.5 |
| 20260503221556 | 16 | 163 | 9.7 | 17.7 | 0.00 | 0.00 | 0.00 | 77 | 1014.6 |
| 20260503220039 | 15 | 147 | 3.2 | 11.3 | 0.00 | 0.00 | 0.00 | 79 | 1014.7 |
| 20260503214538 | 15 | 147 | 4.8 | 11.3 | 0.00 | 0.00 | 0.00 | 80 | 1014.7 |
| 20260503213021 | 16 | 147 | 3.2 | 8.0 | 0.00 | 0.00 | 0.00 | 80 | 1014.9 |
| 20260503211522 | 16 | 147 | 4.8 | 11.3 | 0.00 | 0.00 | 0.00 | 80 | 1014.9 |
| 20260503210002 | 16 | 146 | 3.2 | 8.0 | 0.00 | 0.00 | 0.00 | 80 | 1015.0 |
| 20260503204503 | 16 | 146 | 3.2 | 11.3 | 0.00 | 0.00 | 0.00 | 80 | 1015.1 |
| 20260503203044 | 16 | 146 | 3.2 | 8.0 | 0.00 | 0.00 | 0.00 | 80 | 1015.2 |
| 20260503201545 | 16 | 146 | 3.2 | 11.3 | 0.00 | 0.00 | 0.00 | 80 | 1015.2 |
| 20260503200034 | 16 | 145 | 3.2 | 11.3 | 0.00 | 0.00 | 0.00 | 79 | 1015.1 |
| 20260503194535 | 16 | 145 | 4.8 | 8.0 | 0.00 | 0.00 | 0.00 | 79 | 1015.1 |
| 20260503193037 | 16 | 144 | 3.2 | 11.3 | 0.00 | 0.00 | 0.00 | 78 | 1015.1 |
| 20260503191530 | 16 | 142 | 4.8 | 12.9 | 0.00 | 0.00 | 0.00 | 78 | 1014.9 |
| 20260503190030 | 16 | 140 | 4.8 | 8.0 | 0.00 | 0.00 | 0.00 | 77 | 1014.8 |
| 20260503184537 | 16 | 140 | 3.2 | 12.9 | 0.00 | 0.00 | 0.00 | 76 | 1014.8 |
| 20260503183029 | 17 | 140 | 3.2 | 11.3 | 0.00 | 0.00 | 0.00 | 74 | 1014.8 |
| 20260503181528 | 17 | 138 | 3.2 | 16.1 | 0.00 | 0.00 | 0.00 | 73 | 1014.6 |
| 20260503180020 | 17 | 136 | 1.6 | 8.0 | 0.00 | 0.00 | 0.00 | 72 | 1014.6 |
| 20260503174511 | 17 | 136 | 4.8 | 12.9 | 0.00 | 0.00 | 0.00 | 72 | 1014.5 |
| 20260503173116 | 18 | 134 | 9.7 | 25.7 | 0.00 | 0.00 | 0.00 | 72 | 1014.5 |
| 20260503171552 | 18 | 138 | 9.7 | 22.5 | 0.00 | 0.00 | 0.00 | 73 | 1014.6 |
| 20260503090104 | 20 | 348 | 8.0 | 12.9 | 0.00 | 0.00 | 0.00 | 68 | 1017.7 |
| 20260503081556 | 20 | 129 | 12.9 | 22.5 | 0.00 | 0.00 | 0.00 | 57 | 1017.5 |
| 20260503071510 | 17 | 123 | 6.4 | 19.3 | 0.00 | 0.00 | 0.00 | 77 | 1017.3 |
| 20260503054502 | 13 | 252 | 0.0 | 4.8 | 0.00 | 0.00 | 0.00 | 85 | 1017.6 |
| 20260503053041 | 12 | 261 | 1.6 | 4.8 | 0.00 | 0.00 | 0.00 | 83 | 1017.6 |
| 20260503051536 | 11 | 261 | 1.6 | 4.8 | 0.00 | 0.00 | 0.00 | 83 | 1017.6 |
| 20260503050016 | 11 | 261 | 1.6 | 4.8 | 0.00 | 0.00 | 0.00 | 83 | 1017.6 |
| 20260503044512 | 10 | 261 | 3.2 | 9.7 | 0.00 | 0.00 | 0.00 | 82 | 1017.6 |
| 20260503043054 | 10 | 261 | 3.2 | 6.4 | 0.00 | 0.00 | 0.00 | 81 | 1017.6 |
| 20260503041605 | 10 | 261 | 3.2 | 9.7 | 0.00 | 0.00 | 0.00 | 82 | 1017.5 |
| 20260503040044 | 9 | 262 | 4.8 | 11.3 | 0.00 | 0.00 | 0.00 | 81 | 1017.5 |
| 20260503034544 | 10 | 263 | 1.6 | 6.4 | 0.00 | 0.00 | 0.00 | 81 | 1017.6 |
| 20260503033012 | 9 | 263 | 3.2 | 4.8 | 0.00 | 0.00 | 0.00 | 80 | 1017.8 |
| 20260503031513 | 9 | 263 | 4.8 | 9.7 | 0.00 | 0.00 | 0.00 | 79 | 1017.9 |
| 20260503030055 | 9 | 263 | 3.2 | 9.7 | 0.00 | 0.00 | 0.00 | 79 | 1018.0 |
| 20260503024552 | 8 | 263 | 4.8 | 9.7 | 0.00 | 0.00 | 0.00 | 78 | 1018.1 |
| 20260503023037 | 9 | 263 | 4.8 | 6.4 | 0.00 | 0.00 | 0.00 | 78 | 1018.2 |
| 20260503021541 | 9 | 263 | 1.6 | 9.7 | 0.00 | 0.00 | 0.00 | 78 | 1018.1 |
| 20260503020031 | 9 | 264 | 1.6 | 4.8 | 0.00 | 0.00 | 0.00 | 78 | 1018.0 |
| 20260503014529 | 9 | 264 | 4.8 | 9.7 | 0.00 | 0.00 | 0.00 | 78 | 1018.1 |
| 20260503013027 | 9 | 264 | 3.2 | 6.4 | 0.00 | 0.00 | 0.00 | 78 | 1018.1 |
| 20260503011526 | 9 | 264 | 3.2 | 6.4 | 0.00 | 0.00 | 0.00 | 77 | 1018.1 |
| 20260503010025 | 10 | 264 | 3.2 | 6.4 | 0.00 | 0.00 | 0.00 | 77 | 1018.2 |
| 20260503004523 | 10 | 264 | 1.6 | 6.4 | 0.00 | 0.00 | 0.00 | 76 | 1018.4 |
| 20260503003009 | 10 | 264 | 4.8 | 9.7 | 0.00 | 0.00 | 0.00 | 74 | 1018.5 |